createdAt,value
2019-03-13T00:00:54.347Z,72.33
2019-03-13T00:03:23.814Z,72.60
2019-03-13T00:05:53.316Z,72.70
2019-03-13T00:08:22.780Z,72.77
2019-03-13T00:10:52.332Z,73.00
2019-03-13T00:13:21.809Z,72.87
2019-03-13T00:15:51.318Z,72.91
2019-03-13T00:18:20.848Z,73.29
2019-03-13T00:20:50.358Z,73.46
2019-03-13T00:23:19.883Z,73.68
2019-03-13T00:25:49.372Z,73.90
2019-03-13T00:28:18.863Z,74.09
2019-03-13T00:30:48.315Z,74.26
2019-03-13T00:33:17.787Z,74.46
2019-03-13T00:35:47.270Z,74.57
2019-03-13T00:38:16.763Z,75.07
2019-03-13T00:40:46.286Z,75.04
2019-03-13T00:43:15.809Z,75.31
2019-03-13T00:45:45.993Z,75.26
2019-03-13T00:48:15.477Z,75.43
2019-03-13T00:50:45.024Z,75.66
2019-03-13T00:53:14.536Z,75.64
2019-03-13T00:55:44.063Z,75.85
2019-03-13T00:58:13.546Z,75.96
2019-03-13T01:01:17.171Z,76.10
2019-03-13T01:03:53.937Z,76.23
2019-03-13T01:06:26.574Z,76.54
2019-03-13T01:08:56.103Z,76.80
2019-03-13T01:11:27.337Z,76.93
2019-03-13T01:13:57.002Z,76.83
2019-03-13T01:16:26.530Z,76.74
2019-03-13T01:18:56.082Z,76.65
2019-03-13T01:21:25.567Z,76.51
2019-03-13T01:23:55.087Z,76.49
2019-03-13T01:26:24.565Z,76.08
2019-03-13T01:28:54.113Z,75.85
2019-03-13T01:31:41.109Z,75.80
2019-03-13T01:34:22.015Z,75.66
2019-03-13T01:36:51.500Z,75.06
2019-03-13T01:39:21.050Z,74.54
2019-03-13T01:41:50.605Z,74.69
2019-03-13T01:44:20.113Z,74.78
2019-03-13T01:46:49.632Z,74.97
2019-03-13T01:49:19.142Z,74.76
2019-03-13T01:51:48.715Z,74.40
2019-03-13T01:54:18.256Z,74.42
2019-03-13T01:56:47.801Z,74.74
2019-03-13T01:59:17.311Z,74.90
2019-03-13T02:01:46.873Z,74.97
2019-03-13T02:04:16.392Z,75.21
2019-03-13T02:06:45.924Z,75.55
2019-03-13T02:09:15.403Z,75.28
2019-03-13T02:11:44.881Z,75.30
2019-03-13T02:14:14.371Z,75.09
2019-03-13T02:16:43.883Z,75.36
2019-03-13T02:19:13.391Z,75.33
2019-03-13T02:21:42.891Z,75.31
2019-03-13T02:24:12.461Z,75.03
2019-03-13T02:26:41.924Z,75.40
2019-03-13T02:29:11.418Z,75.26
2019-03-13T02:31:40.932Z,75.68
2019-03-13T02:34:10.426Z,75.96
2019-03-13T02:36:39.882Z,76.17
2019-03-13T02:39:09.479Z,76.00
2019-03-13T02:41:38.963Z,75.82
2019-03-13T02:44:08.466Z,75.69
2019-03-13T02:46:37.940Z,75.96
2019-03-13T02:49:09.164Z,75.77
2019-03-13T02:51:38.626Z,75.67
2019-03-13T02:54:08.147Z,75.54
2019-03-13T02:56:37.645Z,75.78
2019-03-13T02:59:07.141Z,75.76
2019-03-13T03:01:54.171Z,76.03
2019-03-13T03:04:23.657Z,76.02
2019-03-13T03:06:53.137Z,75.74
2019-03-13T03:09:22.597Z,75.87
2019-03-13T03:11:52.045Z,75.94
2019-03-13T03:14:21.515Z,75.55
2019-03-13T03:16:51.008Z,74.24
2019-03-13T03:19:20.537Z,74.15
2019-03-13T03:21:50.104Z,74.27
2019-03-13T03:24:19.609Z,74.25
2019-03-13T03:26:49.124Z,74.31
2019-03-13T03:29:18.660Z,73.73
2019-03-13T03:31:48.165Z,73.54
2019-03-13T03:34:17.738Z,73.41
2019-03-13T03:36:47.224Z,73.21
2019-03-13T03:39:16.700Z,73.21
2019-03-13T03:41:46.503Z,72.97
2019-03-13T03:44:16.003Z,72.48
2019-03-13T03:46:45.527Z,72.39
2019-03-13T03:49:15.042Z,72.78
2019-03-13T03:51:44.545Z,71.93
2019-03-13T03:54:14.030Z,70.69
2019-03-13T03:56:43.526Z,70.84
2019-03-13T03:59:12.987Z,70.37
2019-03-13T04:01:42.504Z,69.69
2019-03-13T04:04:12.006Z,69.05
2019-03-13T04:06:41.888Z,68.16
2019-03-13T04:09:11.355Z,68.58
2019-03-13T04:11:40.811Z,67.97
2019-03-13T04:14:10.310Z,67.36
2019-03-13T04:16:39.810Z,67.58
2019-03-13T04:19:09.333Z,66.90
2019-03-13T04:21:38.834Z,66.35
2019-03-13T04:24:08.317Z,66.53
2019-03-13T04:26:37.842Z,66.44
2019-03-13T04:29:07.338Z,66.08
2019-03-13T04:31:36.821Z,65.82
2019-03-13T04:34:06.347Z,65.69
2019-03-13T04:36:35.853Z,65.61
2019-03-13T04:39:06.138Z,65.92
2019-03-13T04:41:35.580Z,66.27
2019-03-13T04:44:05.050Z,66.22
2019-03-13T04:46:34.552Z,65.87
2019-03-13T04:49:04.073Z,66.23
2019-03-13T04:51:33.583Z,66.11
2019-03-13T04:54:03.088Z,66.38
2019-03-13T04:56:32.639Z,66.76
2019-03-13T04:59:02.126Z,67.10
2019-03-13T05:01:31.618Z,67.13
2019-03-13T05:04:01.124Z,67.62
2019-03-13T05:06:30.623Z,67.12
2019-03-13T05:09:03.752Z,67.27
2019-03-13T05:11:33.268Z,67.50
2019-03-13T05:14:02.754Z,67.24
2019-03-13T05:16:32.199Z,67.17
2019-03-13T05:19:01.659Z,67.19
2019-03-13T05:21:31.166Z,67.43
2019-03-13T05:24:00.703Z,67.38
2019-03-13T05:26:30.241Z,67.13
2019-03-13T05:28:59.759Z,66.83
2019-03-13T05:31:29.298Z,65.70
2019-03-13T05:33:58.831Z,64.99
2019-03-13T05:36:28.338Z,65.30
2019-03-13T05:38:57.908Z,65.12
2019-03-13T05:41:27.415Z,65.00
2019-03-13T05:43:56.920Z,64.69
2019-03-13T05:46:26.435Z,64.39
2019-03-13T05:48:55.966Z,63.93
2019-03-13T05:51:25.481Z,63.67
2019-03-13T05:53:54.996Z,64.32
2019-03-13T05:56:24.452Z,64.41
2019-03-13T05:58:53.960Z,64.07
2019-03-13T06:01:23.528Z,63.89
2019-03-13T06:03:53.068Z,64.09
2019-03-13T06:06:22.659Z,64.30
2019-03-13T06:08:52.179Z,63.92
2019-03-13T06:11:21.676Z,64.34
2019-03-13T06:13:51.156Z,64.10
2019-03-13T06:16:20.709Z,63.66
2019-03-13T06:18:52.741Z,63.29
2019-03-13T06:21:21.432Z,62.89
2019-03-13T06:23:50.912Z,62.39
2019-03-13T06:26:20.407Z,62.06
2019-03-13T06:28:49.936Z,61.83
2019-03-13T06:31:19.490Z,61.43
2019-03-13T06:33:49.025Z,61.27
2019-03-13T06:36:18.557Z,61.77
2019-03-13T06:38:48.052Z,62.12
2019-03-13T06:41:17.547Z,61.72
2019-03-13T06:43:47.146Z,61.50
2019-03-13T06:46:16.627Z,61.56
2019-03-13T06:48:46.135Z,60.58
2019-03-13T06:51:15.700Z,61.03
2019-03-13T06:53:45.196Z,61.42
2019-03-13T06:56:14.714Z,60.29
2019-03-13T06:58:50.491Z,59.95
2019-03-13T07:01:38.982Z,59.55
2019-03-13T07:04:23.949Z,59.84
2019-03-13T07:07:15.399Z,58.96
2019-03-13T07:10:12.761Z,59.65
2019-03-13T07:12:56.974Z,59.47
2019-03-13T07:15:45.421Z,59.70
2019-03-13T07:18:23.752Z,59.28
2019-03-13T07:21:12.209Z,59.41
2019-03-13T07:23:59.239Z,59.53
2019-03-13T07:26:43.059Z,59.45
2019-03-13T07:29:31.479Z,59.39
2019-03-13T07:32:29.157Z,59.12
2019-03-13T07:35:16.512Z,59.18
2019-03-13T07:38:00.240Z,59.17
2019-03-13T07:40:39.254Z,59.51
2019-03-13T07:43:39.800Z,58.58
2019-03-13T07:46:31.276Z,59.00
2019-03-13T07:49:14.785Z,58.79
2019-03-13T07:52:02.138Z,57.64
2019-03-13T07:54:39.900Z,58.31
2019-03-13T07:57:14.817Z,57.97
2019-03-13T08:00:09.285Z,57.08
2019-03-13T08:02:48.018Z,57.61
2019-03-13T08:05:26.677Z,57.41
2019-03-13T08:08:30.336Z,55.61
2019-03-13T08:11:07.683Z,55.33
2019-03-13T08:14:01.193Z,55.40
2019-03-13T08:16:42.924Z,55.02
2019-03-13T08:19:26.112Z,54.24
2019-03-13T08:22:26.655Z,54.09
2019-03-13T08:25:17.857Z,52.34
2019-03-13T08:28:09.062Z,52.33
2019-03-13T08:30:52.769Z,51.43
2019-03-13T08:33:47.272Z,51.37
2019-03-13T08:36:26.775Z,51.71
2019-03-13T08:39:09.775Z,50.58
2019-03-13T08:41:57.060Z,50.97
2019-03-13T08:45:03.824Z,51.42
2019-03-13T08:48:01.171Z,51.03
2019-03-13T08:50:40.796Z,51.52
2019-03-13T08:53:37.765Z,50.71
2019-03-13T08:56:22.738Z,51.33
2019-03-13T08:59:00.304Z,50.36
2019-03-13T09:01:51.354Z,49.89
2019-03-13T09:04:41.868Z,50.41
2019-03-13T09:07:28.763Z,49.78
2019-03-13T09:10:12.483Z,50.13
2019-03-13T09:12:54.753Z,49.98
2019-03-13T09:15:32.577Z,49.25
2019-03-13T09:18:12.202Z,49.72
2019-03-13T09:20:49.403Z,50.42
2019-03-13T09:23:31.592Z,50.31
2019-03-13T09:26:19.057Z,49.44
2019-03-13T09:29:05.415Z,49.62
2019-03-13T09:31:52.738Z,50.34
2019-03-13T09:34:41.130Z,48.11
2019-03-13T09:37:44.904Z,47.44
2019-03-13T09:40:36.426Z,46.45
2019-03-13T09:43:23.671Z,45.63
2019-03-13T09:46:00.556Z,45.44
2019-03-13T09:48:56.060Z,44.71
2019-03-13T09:51:47.294Z,45.00
2019-03-13T09:54:34.717Z,45.20
2019-03-13T09:57:32.448Z,46.12
2019-03-13T10:00:20.854Z,46.01
2019-03-13T10:03:05.716Z,45.77
2019-03-13T10:05:44.812Z,45.21
2019-03-13T10:08:39.271Z,45.76
2019-03-13T10:11:16.917Z,45.40
2019-03-13T10:14:12.859Z,45.12
2019-03-13T10:17:10.809Z,45.00
2019-03-13T10:19:52.828Z,45.07
2019-03-13T10:22:40.155Z,44.98
2019-03-13T10:25:19.231Z,43.83
2019-03-13T10:28:07.656Z,43.79
2019-03-13T10:30:42.926Z,44.81
2019-03-13T10:33:30.886Z,45.01
2019-03-13T10:36:10.541Z,45.62
2019-03-13T10:38:57.567Z,45.16
2019-03-13T10:41:44.896Z,44.69
2019-03-13T10:44:30.571Z,43.76
2019-03-13T10:47:09.054Z,43.46
2019-03-13T10:49:43.704Z,43.97
2019-03-13T10:52:35.224Z,43.99
2019-03-13T10:55:35.840Z,43.80
2019-03-13T10:58:30.006Z,44.09
2019-03-13T11:01:10.193Z,43.39
2019-03-13T11:03:58.607Z,43.91
2019-03-13T11:06:55.345Z,43.22
2019-03-13T11:09:28.865Z,43.87
2019-03-13T11:12:14.250Z,43.45
2019-03-13T11:15:14.723Z,43.62
2019-03-13T11:18:06.007Z,43.10
2019-03-13T11:20:53.985Z,44.55
2019-03-13T11:24:00.606Z,43.22
2019-03-13T11:26:38.952Z,43.86
2019-03-13T11:29:26.201Z,43.58
2019-03-13T11:32:11.021Z,43.17
2019-03-13T11:34:49.329Z,43.07
2019-03-13T11:37:30.216Z,42.71
2019-03-13T11:40:27.481Z,42.81
2019-03-13T11:43:18.705Z,42.84
2019-03-13T11:45:58.721Z,42.38
2019-03-13T11:48:45.935Z,42.30
2019-03-13T11:51:25.306Z,42.14
2019-03-13T11:54:12.578Z,42.31
2019-03-13T11:57:01.461Z,42.29
2019-03-13T11:59:48.464Z,41.30
2019-03-13T12:02:52.342Z,41.32
2019-03-13T12:05:49.530Z,41.68
2019-03-13T12:08:40.786Z,41.58
2019-03-13T12:11:32.086Z,41.77
2019-03-13T12:14:26.256Z,41.28
2019-03-13T12:17:12.548Z,41.62
2019-03-13T12:20:19.088Z,41.13
2019-03-13T12:22:58.771Z,40.98
2019-03-13T12:25:38.801Z,41.18
2019-03-13T12:28:42.414Z,41.69
2019-03-13T12:31:30.739Z,41.86
2019-03-13T12:34:22.219Z,42.01
2019-03-13T12:37:01.240Z,40.44
2019-03-13T12:39:52.555Z,40.87
2019-03-13T12:42:31.912Z,39.61
2019-03-13T12:45:11.976Z,40.27
2019-03-13T12:47:53.022Z,40.34
2019-03-13T12:50:34.346Z,39.74
2019-03-13T12:53:21.742Z,39.89
2019-03-13T12:56:22.581Z,39.43
2019-03-13T12:59:03.245Z,39.20
2019-03-13T13:01:47.741Z,39.09
2019-03-13T13:04:27.738Z,39.37
2019-03-13T13:07:12.939Z,39.75
2019-03-13T13:10:01.346Z,40.08
2019-03-13T13:12:47.781Z,41.04
2019-03-13T13:15:34.805Z,41.63
2019-03-13T13:18:22.281Z,42.38
2019-03-13T13:20:51.802Z,42.15
2019-03-13T13:23:21.346Z,42.10
2019-03-13T13:25:50.839Z,42.35
2019-03-13T13:28:20.323Z,42.41
2019-03-13T13:30:49.809Z,42.53
2019-03-13T13:33:19.367Z,42.74
2019-03-13T13:35:48.862Z,42.65
2019-03-13T13:38:18.401Z,42.26
2019-03-13T13:40:47.979Z,42.50
2019-03-13T13:43:17.484Z,43.12
2019-03-13T13:46:05.975Z,42.95
2019-03-13T13:48:35.435Z,43.60
2019-03-13T13:51:04.944Z,43.25
2019-03-13T13:53:34.484Z,43.49
2019-03-13T13:56:03.965Z,43.39
2019-03-13T13:58:33.481Z,43.75
2019-03-13T14:01:02.945Z,43.75
2019-03-13T14:03:32.404Z,43.83
2019-03-13T14:06:01.873Z,43.54
2019-03-13T14:08:31.416Z,43.90
2019-03-13T14:11:00.914Z,44.23
2019-03-13T14:13:30.386Z,44.33
2019-03-13T14:15:59.892Z,43.58
2019-03-13T14:18:29.491Z,43.35
2019-03-13T14:20:59.007Z,43.69
2019-03-13T14:23:28.536Z,43.92
2019-03-13T14:25:58.117Z,43.84
2019-03-13T14:28:27.572Z,43.84
2019-03-13T14:30:57.043Z,44.13
2019-03-13T14:33:26.488Z,44.35
2019-03-13T14:35:56.003Z,44.60
2019-03-13T14:38:25.526Z,44.43
2019-03-13T14:40:55.027Z,44.34
2019-03-13T14:43:24.540Z,44.26
2019-03-13T14:45:54.023Z,43.69
2019-03-13T14:48:23.522Z,44.38
2019-03-13T14:50:53.073Z,44.53
2019-03-13T14:53:22.631Z,44.61
2019-03-13T14:55:52.157Z,45.08
2019-03-13T14:58:21.655Z,45.10
2019-03-13T15:00:51.122Z,45.17
2019-03-13T15:03:20.597Z,45.67
2019-03-13T15:05:50.144Z,45.61
2019-03-13T15:08:19.649Z,45.91
2019-03-13T15:10:49.145Z,45.96
2019-03-13T15:13:18.649Z,46.40
2019-03-13T15:15:48.150Z,46.37
2019-03-13T15:18:17.625Z,47.04
2019-03-13T15:20:47.125Z,46.86
2019-03-13T15:23:16.600Z,46.16
2019-03-13T15:25:46.170Z,46.47
2019-03-13T15:28:17.438Z,46.10
2019-03-13T15:30:46.846Z,46.72
2019-03-13T15:33:16.337Z,46.71
2019-03-13T15:35:45.872Z,46.70
2019-03-13T15:38:15.393Z,47.03
2019-03-13T15:40:44.898Z,47.29
2019-03-13T15:43:14.420Z,47.13
2019-03-13T15:45:43.939Z,47.01
2019-03-13T15:48:13.488Z,47.47
2019-03-13T15:50:43.070Z,47.69
2019-03-13T15:53:12.580Z,47.85
2019-03-13T15:55:42.172Z,48.11
2019-03-13T15:58:11.719Z,48.14
2019-03-13T16:00:41.255Z,48.65
2019-03-13T16:03:10.781Z,48.63
2019-03-13T16:05:40.287Z,49.07
2019-03-13T16:08:10.188Z,48.93
2019-03-13T16:10:39.765Z,49.12
2019-03-13T16:13:09.314Z,49.41
2019-03-13T16:15:39.203Z,49.68
2019-03-13T16:18:08.731Z,50.13
2019-03-13T16:20:38.287Z,50.44
2019-03-13T16:23:07.764Z,50.67
2019-03-13T16:25:37.262Z,50.87
2019-03-13T16:28:06.902Z,51.15
2019-03-13T16:30:39.213Z,51.41
2019-03-13T16:33:08.703Z,51.87
2019-03-13T16:35:38.203Z,51.94
2019-03-13T16:38:07.692Z,52.50
2019-03-13T16:40:37.193Z,52.54
2019-03-13T16:43:06.651Z,52.80
2019-03-13T16:45:36.204Z,52.73
2019-03-13T16:48:06.159Z,52.98
2019-03-13T16:50:35.671Z,52.71
2019-03-13T16:53:05.546Z,52.78
2019-03-13T16:55:35.273Z,53.21
2019-03-13T16:58:04.761Z,53.20
2019-03-13T17:00:34.419Z,53.16
2019-03-13T17:03:03.984Z,53.29
2019-03-13T17:05:33.509Z,53.38
2019-03-13T17:08:03.020Z,53.80
2019-03-13T17:10:32.525Z,54.09
2019-03-13T17:13:05.185Z,54.34
2019-03-13T17:15:33.315Z,54.36
2019-03-13T17:18:02.737Z,54.61
2019-03-13T17:20:32.268Z,54.81
2019-03-13T17:23:01.879Z,54.88
2019-03-13T17:25:31.370Z,55.03
2019-03-13T17:28:00.912Z,55.18
2019-03-13T17:30:30.506Z,55.29
2019-03-13T17:33:00.359Z,55.66
2019-03-13T17:35:29.885Z,55.75
2019-03-13T17:37:59.435Z,55.83
2019-03-13T17:40:28.947Z,55.72
2019-03-13T17:42:58.472Z,56.03
2019-03-13T17:45:28.025Z,56.08
2019-03-13T17:47:57.681Z,56.12
2019-03-13T17:50:27.285Z,56.09
2019-03-13T17:52:56.886Z,56.28
2019-03-13T17:55:26.432Z,56.35
2019-03-13T17:57:55.975Z,56.66
2019-03-13T18:00:29.496Z,56.08
2019-03-13T18:02:59.139Z,56.35
2019-03-13T18:05:28.638Z,56.48
2019-03-13T18:07:58.101Z,56.50
2019-03-13T18:10:27.581Z,56.43
2019-03-13T18:12:57.105Z,56.44
2019-03-13T18:15:28.844Z,56.52
2019-03-13T18:17:58.496Z,56.40
2019-03-13T18:20:28.141Z,56.09
2019-03-13T18:22:57.661Z,56.24
2019-03-13T18:25:27.230Z,56.06
2019-03-13T18:27:56.759Z,56.03
2019-03-13T18:30:26.297Z,56.13
2019-03-13T18:32:55.802Z,56.34
2019-03-13T18:35:25.334Z,56.37
2019-03-13T18:37:54.811Z,56.22
2019-03-13T18:40:24.462Z,56.43
2019-03-13T18:42:54.103Z,56.83
2019-03-13T18:45:24.808Z,56.86
2019-03-13T18:47:55.538Z,57.02
2019-03-13T18:50:25.205Z,56.93
2019-03-13T18:52:55.099Z,57.02
2019-03-13T18:55:24.640Z,57.09
2019-03-13T18:57:54.266Z,57.08
2019-03-13T19:00:28.587Z,57.06
2019-03-13T19:02:58.208Z,56.93
2019-03-13T19:05:28.207Z,57.02
2019-03-13T19:07:57.715Z,56.97
2019-03-13T19:10:27.399Z,57.00
2019-03-13T19:12:57.203Z,56.95
2019-03-13T19:15:26.762Z,56.89
2019-03-13T19:17:56.302Z,57.17
2019-03-13T19:20:25.908Z,57.06
2019-03-13T19:22:55.463Z,57.02
2019-03-13T19:25:25.098Z,56.53
2019-03-13T19:27:54.728Z,56.77
2019-03-13T19:30:26.232Z,56.70
2019-03-13T19:32:56.816Z,56.77
2019-03-13T19:35:26.377Z,56.75
2019-03-13T19:37:56.219Z,56.86
2019-03-13T19:40:25.737Z,56.79
2019-03-13T19:42:55.242Z,56.77
2019-03-13T19:45:33.438Z,56.76
2019-03-13T19:48:02.948Z,56.68
2019-03-13T19:50:32.451Z,56.79
2019-03-13T19:53:01.919Z,57.03
2019-03-13T19:55:31.463Z,57.09
2019-03-13T19:58:01.114Z,56.95
2019-03-13T20:00:30.661Z,57.24
2019-03-13T20:03:00.977Z,57.35
2019-03-13T20:05:30.599Z,57.38
2019-03-13T20:08:00.111Z,57.72
2019-03-13T20:10:29.615Z,57.63
2019-03-13T20:12:59.368Z,57.50
2019-03-13T20:15:28.869Z,57.54
2019-03-13T20:17:58.464Z,57.80
2019-03-13T20:20:28.055Z,57.97
2019-03-13T20:22:58.779Z,57.78
2019-03-13T20:25:28.313Z,57.99
2019-03-13T20:27:57.828Z,58.17
2019-03-13T20:30:27.489Z,57.90
2019-03-13T20:32:57.079Z,57.93
2019-03-13T20:35:26.547Z,58.08
2019-03-13T20:37:56.115Z,58.16
2019-03-13T20:40:25.758Z,58.32
2019-03-13T20:42:55.304Z,58.34
2019-03-13T20:45:24.853Z,58.53
2019-03-13T20:47:54.561Z,58.64
2019-03-13T20:50:35.899Z,58.72
2019-03-13T20:52:55.634Z,58.69
2019-03-13T20:55:25.236Z,58.57
2019-03-13T20:57:54.708Z,58.32
2019-03-13T21:00:24.542Z,58.23
2019-03-13T21:02:54.243Z,58.53
2019-03-13T21:05:24.031Z,58.26
2019-03-13T21:07:53.759Z,58.04
2019-03-13T21:10:23.361Z,58.13
2019-03-13T21:12:52.946Z,57.95
2019-03-13T21:15:22.528Z,58.05
2019-03-13T21:17:52.133Z,57.88
2019-03-13T21:20:22.262Z,57.92
2019-03-13T21:22:51.732Z,58.03
2019-03-13T21:25:21.609Z,58.08
2019-03-13T21:27:51.119Z,57.88
2019-03-13T21:30:22.359Z,57.65
2019-03-13T21:32:51.876Z,57.86
2019-03-13T21:35:21.443Z,58.00
2019-03-13T21:37:51.398Z,58.02
2019-03-13T21:40:20.930Z,57.93
2019-03-13T21:42:53.995Z,57.72
2019-03-13T21:45:23.155Z,57.67
2019-03-13T21:47:52.904Z,57.74
2019-03-13T21:50:23.131Z,57.47
2019-03-13T21:52:52.697Z,57.22
2019-03-13T21:55:22.207Z,57.32
2019-03-13T21:57:52.485Z,57.19
2019-03-13T22:00:24.134Z,57.08
2019-03-13T22:02:54.144Z,56.85
2019-03-13T22:05:26.643Z,56.74
2019-03-13T22:07:54.960Z,56.53
2019-03-13T22:10:24.552Z,56.69
2019-03-13T22:12:54.062Z,56.61
2019-03-13T22:15:23.684Z,56.31
2019-03-13T22:17:53.195Z,56.55
2019-03-13T22:20:22.761Z,56.39
2019-03-13T22:22:52.262Z,56.46
2019-03-13T22:25:21.799Z,56.54
2019-03-13T22:27:51.309Z,56.55
2019-03-13T22:30:21.237Z,56.68
2019-03-13T22:32:50.707Z,56.75
2019-03-13T22:35:20.330Z,56.84
2019-03-13T22:37:49.814Z,57.00
2019-03-13T22:40:20.558Z,57.04
2019-03-13T22:42:50.067Z,57.26
2019-03-13T22:45:19.653Z,57.18
2019-03-13T22:47:49.174Z,57.11
2019-03-13T22:50:18.948Z,57.15
2019-03-13T22:52:48.452Z,57.24
2019-03-13T22:55:17.978Z,57.35
2019-03-13T22:57:47.581Z,57.50
2019-03-13T23:01:06.043Z,57.57
2019-03-13T23:03:35.547Z,57.85
2019-03-13T23:06:05.085Z,58.14
2019-03-13T23:08:34.571Z,58.16
2019-03-13T23:11:04.205Z,58.48
2019-03-13T23:13:33.713Z,58.43
2019-03-13T23:16:03.167Z,58.61
2019-03-13T23:18:32.691Z,58.92
2019-03-13T23:21:02.213Z,59.15
2019-03-13T23:23:31.694Z,59.48
2019-03-13T23:26:01.230Z,59.57
2019-03-13T23:28:30.699Z,59.54
2019-03-13T23:31:00.265Z,59.51
2019-03-13T23:33:29.775Z,59.62
2019-03-13T23:35:59.338Z,59.93
2019-03-13T23:38:28.838Z,59.87
2019-03-13T23:40:58.699Z,59.91
2019-03-13T23:43:28.583Z,60.04
2019-03-13T23:45:58.158Z,60.22
2019-03-13T23:48:27.668Z,60.20
2019-03-13T23:53:14.720Z,60.12
2019-03-13T23:55:44.229Z,60.26
2019-03-13T23:58:13.777Z,60.13
